Time;durP1;ratioP1;P1;durP2;ratioP2;P2;SDS_P1;SDS_P2;PMS_P1;PMS_P2;Temp;Humidity;BMP_temperature;BMP_pressure;BME280_temperature;BME280_humidity;BME280_pressure;Samples;Min_cycle;Max_cycle;Signal;HPM_P1;HPM_P2
2021/10/15 00:01:10;;;;;;;3.13;2.38;;;18.50;66.60;;;;;;5052761;28;20241;-71
2021/10/15 00:03:35;;;;;;;2.25;2.05;;;18.50;66.60;;;;;;5054523;28;20216;-69
2021/10/15 00:06:01;;;;;;;4.38;2.22;;;18.50;66.60;;;;;;5054522;28;20179;-70
2021/10/15 00:08:26;;;;;;;2.30;2.10;;;18.50;66.60;;;;;;5053825;28;20163;-69
2021/10/15 00:10:52;;;;;;;2.60;2.13;;;18.50;66.60;;;;;;5054244;28;20229;-71
2021/10/15 00:13:17;;;;;;;2.22;1.90;;;18.50;66.50;;;;;;5054414;28;20168;-71
2021/10/15 00:15:43;;;;;;;2.67;1.95;;;18.40;66.50;;;;;;5053540;28;20179;-70
2021/10/15 00:18:08;;;;;;;2.05;1.80;;;18.50;66.50;;;;;;5053980;28;20202;-70
2021/10/15 00:20:34;;;;;;;3.67;1.92;;;18.40;66.50;;;;;;5054509;28;20338;-69
2021/10/15 00:22:59;;;;;;;2.20;2.00;;;18.40;66.50;;;;;;5053281;28;20297;-72
2021/10/15 00:25:25;;;;;;;2.58;2.10;;;18.40;66.50;;;;;;5054150;28;20242;-72
2021/10/15 00:27:50;;;;;;;3.00;2.30;;;18.40;66.50;;;;;;5053768;28;20171;-75
2021/10/15 00:30:16;;;;;;;2.15;1.83;;;18.40;66.50;;;;;;5053426;28;20175;-73
2021/10/15 00:32:41;;;;;;;2.17;1.98;;;18.40;66.50;;;;;;5053890;28;20229;-70
2021/10/15 00:35:07;;;;;;;2.05;1.90;;;18.40;66.50;;;;;;5053946;28;20175;-71
2021/10/15 00:37:33;;;;;;;2.72;2.00;;;18.40;66.40;;;;;;5053324;28;20224;-70
2021/10/15 00:39:58;;;;;;;4.03;2.60;;;18.40;66.40;;;;;;5053682;28;20201;-71
2021/10/15 00:42:24;;;;;;;2.13;2.00;;;18.40;66.40;;;;;;5053826;28;20285;-69
2021/10/15 00:44:49;;;;;;;2.30;1.92;;;18.40;66.40;;;;;;5052965;28;20175;-68
2021/10/15 00:47:15;;;;;;;2.53;2.33;;;18.40;66.50;;;;;;5053738;28;20179;-70
2021/10/15 00:49:40;;;;;;;2.28;2.05;;;18.40;66.40;;;;;;5053223;28;20178;-69
2021/10/15 00:52:08;;;;;;;2.20;2.03;;;18.40;66.40;;;;;;5053579;28;20180;-72
2021/10/15 00:54:34;;;;;;;3.03;2.03;;;18.40;66.40;;;;;;5053699;28;20511;-70
2021/10/15 00:56:59;;;;;;;2.25;1.80;;;18.40;66.40;;;;;;5052754;28;20186;-74
2021/10/15 00:59:25;;;;;;;1.90;1.80;;;18.40;66.40;;;;;;5053552;28;20167;-72
2021/10/15 01:01:50;;;;;;;2.78;2.13;;;18.40;66.40;;;;;;5052968;28;20302;-70
2021/10/15 01:04:16;;;;;;;2.30;2.10;;;18.40;66.40;;;;;;5052928;28;20167;-71
2021/10/15 01:06:41;;;;;;;2.03;1.90;;;18.30;66.30;;;;;;5053645;28;20179;-68
2021/10/15 01:09:07;;;;;;;2.75;2.15;;;18.30;66.30;;;;;;5053104;28;20649;-70
2021/10/15 01:11:32;;;;;;;3.72;2.30;;;18.30;66.30;;;;;;5052708;28;20179;-70
2021/10/15 01:13:58;;;;;;;2.92;2.00;;;18.30;66.20;;;;;;5053056;28;20638;-70
2021/10/15 01:16:26;;;;;;;2.75;2.00;;;18.30;66.30;;;;;;5053236;28;20179;-71
2021/10/15 01:18:52;;;;;;;2.25;2.05;;;18.30;66.30;;;;;;5052404;28;20175;-68
2021/10/15 01:21:17;;;;;;;2.28;1.88;;;18.30;66.30;;;;;;5051945;28;20205;-71
2021/10/15 01:23:43;;;;;;;2.70;2.33;;;18.30;66.20;;;;;;5053180;28;20258;-71
2021/10/15 01:26:08;;;;;;;3.25;1.90;;;18.30;66.20;;;;;;5052011;28;20223;-72
2021/10/15 01:28:34;;;;;;;1.92;1.83;;;18.30;66.20;;;;;;5053041;28;20206;-74
2021/10/15 01:31:00;;;;;;;2.33;2.13;;;18.30;66.20;;;;;;5052644;28;20175;-72
2021/10/15 01:33:25;;;;;;;2.60;2.00;;;18.30;66.20;;;;;;5052560;28;20244;-72
2021/10/15 01:35:51;;;;;;;1.90;1.80;;;18.30;67.10;;;;;;5052917;28;20175;-70
2021/10/15 01:38:16;;;;;;;2.78;2.08;;;18.30;66.20;;;;;;5052878;28;20179;-69
2021/10/15 01:40:42;;;;;;;2.40;2.20;;;18.30;66.20;;;;;;5052332;28;20526;-69
2021/10/15 01:43:08;;;;;;;2.28;2.08;;;18.30;66.20;;;;;;5052537;28;20215;-69
2021/10/15 01:45:34;;;;;;;2.15;1.90;;;18.30;66.20;;;;;;5052787;28;20171;-70
2021/10/15 01:48:00;;;;;;;2.80;2.13;;;18.30;66.20;;;;;;5052044;28;20209;-69
2021/10/15 01:50:25;;;;;;;2.30;1.90;;;18.30;66.10;;;;;;5052765;28;20571;-71
2021/10/15 01:52:51;;;;;;;2.17;2.08;;;18.30;66.20;;;;;;5052509;28;20189;-70
2021/10/15 01:55:17;;;;;;;2.10;1.90;;;18.30;66.10;;;;;;5052102;28;20641;-71
2021/10/15 01:57:42;;;;;;;2.67;1.95;;;18.30;66.10;;;;;;5052810;28;20171;-72
2021/10/15 02:00:09;;;;;;;2.05;1.85;;;18.20;66.10;;;;;;5051729;28;20175;-71
2021/10/15 02:02:35;;;;;;;2.30;2.10;;;18.20;66.00;;;;;;5052770;28;20241;-73
2021/10/15 02:05:00;;;;;;;2.42;2.10;;;18.20;66.10;;;;;;5052644;28;20179;-69
2021/10/15 02:07:26;;;;;;;2.20;1.90;;;18.20;66.10;;;;;;5052134;28;20183;-71
2021/10/15 02:09:51;;;;;;;2.47;1.92;;;18.20;66.20;;;;;;5052329;28;20177;-69
2021/10/15 02:12:17;;;;;;;2.13;1.92;;;18.20;66.00;;;;;;5052599;28;20179;-70
2021/10/15 02:14:42;;;;;;;2.00;1.90;;;18.20;66.00;;;;;;5051972;28;20182;-71
2021/10/15 02:17:08;;;;;;;2.28;2.03;;;18.20;66.00;;;;;;5052506;28;20217;-69
2021/10/15 02:19:33;;;;;;;2.20;2.00;;;18.20;66.00;;;;;;5052647;28;20199;-70
2021/10/15 02:21:59;;;;;;;2.17;1.80;;;18.20;66.10;;;;;;5051534;28;20202;-71
2021/10/15 02:24:24;;;;;;;2.15;1.77;;;18.20;66.10;;;;;;5054011;28;20171;-71
2021/10/15 02:26:50;;;;;;;2.80;2.20;;;18.20;66.10;;;;;;5056009;28;20235;-73
2021/10/15 02:29:15;;;;;;;3.50;2.08;;;18.20;66.10;;;;;;5055695;28;20197;-71
2021/10/15 02:31:41;;;;;;;2.95;2.10;;;18.20;66.10;;;;;;5056502;28;20167;-74
2021/10/15 02:34:06;;;;;;;2.83;2.55;;;18.20;66.10;;;;;;5056187;28;20175;-70
2021/10/15 02:36:32;;;;;;;2.42;2.22;;;18.20;65.90;;;;;;5055733;28;20171;-71
2021/10/15 02:38:58;;;;;;;2.42;1.90;;;18.20;66.00;;;;;;5056157;28;20194;-69
2021/10/15 02:41:23;;;;;;;2.47;2.28;;;18.20;66.00;;;;;;5056074;28;20286;-69
2021/10/15 02:43:49;;;;;;;2.25;1.75;;;18.20;66.00;;;;;;5055062;28;20179;-71
2021/10/15 02:46:14;;;;;;;1.92;1.83;;;18.20;66.00;;;;;;5056271;28;20221;-69
2021/10/15 02:48:40;;;;;;;2.10;1.90;;;18.20;66.00;;;;;;5056018;28;20187;-71
2021/10/15 02:51:06;;;;;;;2.42;2.20;;;18.20;66.00;;;;;;5055211;28;20181;-70
2021/10/15 02:53:31;;;;;;;2.58;2.38;;;18.10;66.00;;;;;;5056156;28;20175;-70
2021/10/15 02:55:57;;;;;;;2.92;2.20;;;18.10;66.00;;;;;;5055818;28;20228;-72
2021/10/15 02:58:22;;;;;;;2.38;2.17;;;18.10;66.00;;;;;;5055282;28;20641;-71
2021/10/15 03:00:50;;;;;;;2.90;2.20;;;18.10;66.00;;;;;;5055825;28;20175;-73
2021/10/15 03:03:15;;;;;;;3.33;2.50;;;18.10;66.00;;;;;;5055387;28;20219;-70
2021/10/15 03:05:41;;;;;;;2.50;2.17;;;18.10;66.00;;;;;;5055920;28;20178;-71
2021/10/15 03:08:07;;;;;;;2.53;2.10;;;18.10;65.90;;;;;;5055744;28;20748;-70
2021/10/15 03:10:32;;;;;;;2.47;2.03;;;18.10;65.90;;;;;;5054900;28;20656;-69
2021/10/15 03:12:58;;;;;;;2.20;2.05;;;18.10;65.90;;;;;;5055540;28;20175;-71
2021/10/15 03:15:23;;;;;;;2.72;2.20;;;18.10;66.00;;;;;;5055508;28;20175;-70
2021/10/15 03:17:49;;;;;;;2.75;2.10;;;18.10;66.00;;;;;;5054689;28;20221;-72
2021/10/15 03:20:14;;;;;;;2.20;2.00;;;18.10;66.00;;;;;;5055643;28;20187;-70
2021/10/15 03:22:40;;;;;;;2.38;1.98;;;18.10;66.00;;;;;;5055402;28;20210;-69
2021/10/15 03:25:05;;;;;;;2.35;2.15;;;18.10;65.90;;;;;;5054271;28;20344;-74
2021/10/15 03:27:31;;;;;;;2.08;1.98;;;18.10;65.90;;;;;;5055474;28;20211;-71
2021/10/15 03:29:56;;;;;;;2.90;2.10;;;18.10;65.90;;;;;;5054932;28;20190;-75
2021/10/15 03:32:22;;;;;;;2.35;2.00;;;18.10;65.90;;;;;;5054507;28;20631;-70
2021/10/15 03:34:47;;;;;;;2.90;2.40;;;18.10;65.90;;;;;;5055034;28;20175;-69
2021/10/15 03:37:13;;;;;;;2.35;2.15;;;18.10;66.00;;;;;;5054076;28;20186;-70
2021/10/15 03:39:38;;;;;;;1.85;1.75;;;18.10;66.00;;;;;;5054373;28;20568;-68
2021/10/15 03:42:04;;;;;;;4.22;2.53;;;18.10;65.90;;;;;;5054822;28;20229;-70
2021/10/15 03:44:29;;;;;;;2.30;2.10;;;18.10;66.00;;;;;;5054943;28;20171;-69
2021/10/15 03:46:55;;;;;;;2.25;2.05;;;18.10;66.00;;;;;;5054165;28;20171;-70
2021/10/15 03:49:20;;;;;;;2.65;1.92;;;18.10;66.00;;;;;;5055574;28;20171;-70
2021/10/15 03:51:46;;;;;;;2.20;2.00;;;18.10;66.00;;;;;;5054806;28;20179;-70
2021/10/15 03:54:11;;;;;;;2.90;2.15;;;18.00;65.80;;;;;;5053849;28;20503;-73
2021/10/15 03:56:37;;;;;;;2.58;2.05;;;18.00;65.80;;;;;;5054702;28;20661;-71
2021/10/15 03:59:03;;;;;;;2.67;2.28;;;18.10;65.90;;;;;;5054574;28;20183;-72
2021/10/15 04:01:28;;;;;;;2.60;2.00;;;18.00;65.80;;;;;;5054107;28;20234;-72
2021/10/15 04:03:53;;;;;;;2.58;2.38;;;18.00;65.80;;;;;;5054492;28;20170;-71
2021/10/15 04:06:19;;;;;;;2.40;2.20;;;18.00;65.80;;;;;;5054590;28;20542;-71
2021/10/15 04:08:44;;;;;;;3.00;2.33;;;18.00;65.80;;;;;;5054008;28;20178;-69
2021/10/15 04:11:10;;;;;;;3.30;2.17;;;18.00;65.80;;;;;;5054250;28;20183;-70
2021/10/15 04:13:35;;;;;;;2.30;2.10;;;18.00;65.90;;;;;;5053743;28;20171;-71
2021/10/15 04:16:01;;;;;;;2.67;2.05;;;18.00;66.00;;;;;;5054091;28;20530;-70
2021/10/15 04:18:30;;;;;;;2.40;2.10;;;18.00;66.00;;;;;;5054552;28;20191;-71
2021/10/15 04:20:56;;;;;;;2.30;2.10;;;18.00;66.00;;;;;;5053348;28;20921;-70
2021/10/15 04:23:21;;;;;;;2.40;2.20;;;18.00;65.90;;;;;;5054391;28;20746;-72
2021/10/15 04:25:47;;;;;;;3.55;2.20;;;18.00;66.00;;;;;;5054082;28;20277;-73
2021/10/15 04:28:12;;;;;;;1.77;1.67;;;18.00;66.10;;;;;;5053738;28;20225;-74
2021/10/15 04:30:38;;;;;;;2.70;1.92;;;18.00;66.10;;;;;;5054326;28;20221;-73
2021/10/15 04:33:03;;;;;;;1.98;1.88;;;18.00;65.90;;;;;;5054026;28;20171;-70
2021/10/15 04:35:29;;;;;;;2.15;1.95;;;18.00;65.90;;;;;;5053436;28;20171;-71
2021/10/15 04:37:54;;;;;;;1.98;1.80;;;18.00;66.20;;;;;;5053680;28;20248;-70
2021/10/15 04:40:20;;;;;;;3.22;1.92;;;18.00;66.20;;;;;;5053812;28;20175;-70
2021/10/15 04:42:45;;;;;;;2.20;2.10;;;18.00;66.00;;;;;;5053066;28;20271;-71
2021/10/15 04:45:11;;;;;;;2.22;2.03;;;18.00;66.00;;;;;;5052515;28;20210;-69
2021/10/15 04:47:36;;;;;;;2.30;2.10;;;18.00;66.00;;;;;;5053555;28;20253;-71
2021/10/15 04:50:03;;;;;;;2.40;1.63;;;18.00;66.10;;;;;;5052856;28;20171;-71
2021/10/15 04:52:29;;;;;;;2.35;1.92;;;18.00;66.10;;;;;;5053668;28;20241;-72
2021/10/15 04:54:54;;;;;;;2.30;2.08;;;18.00;66.20;;;;;;5053474;28;20626;-72
2021/10/15 04:57:20;;;;;;;2.17;2.08;;;18.00;66.10;;;;;;5052916;28;20664;-72
2021/10/15 04:59:45;;;;;;;2.22;2.05;;;17.90;66.10;;;;;;5053739;28;20194;-74
2021/10/15 05:02:11;;;;;;;2.30;2.03;;;18.00;66.00;;;;;;5053343;28;20231;-72
2021/10/15 05:04:39;;;;;;;2.85;1.77;;;18.00;66.10;;;;;;5052942;28;20175;-72
2021/10/15 05:07:04;;;;;;;2.28;2.08;;;18.00;66.00;;;;;;5053158;28;20475;-70
2021/10/15 05:09:33;;;;;;;2.15;2.03;;;17.90;66.10;;;;;;5053257;28;20526;-71
2021/10/15 05:12:05;;;;;;;2.25;2.05;;;17.90;66.20;;;;;;5052347;28;20649;-74
2021/10/15 05:14:32;;;;;;;2.25;2.00;;;17.90;66.10;;;;;;5053399;28;20622;-72
2021/10/15 05:16:58;;;;;;;2.20;2.00;;;17.90;66.20;;;;;;5052351;28;20217;-73
2021/10/15 05:19:24;;;;;;;2.00;1.90;;;18.00;66.30;;;;;;5053314;28;20692;-71
2021/10/15 05:21:49;;;;;;;2.20;2.00;;;17.90;66.20;;;;;;5051683;28;20210;-72
2021/10/15 05:24:15;;;;;;;2.33;2.03;;;17.90;66.20;;;;;;5052470;28;20167;-74
2021/10/15 05:26:40;;;;;;;2.30;1.83;;;17.90;66.30;;;;;;5052876;28;20237;-72
2021/10/15 05:29:06;;;;;;;2.30;2.10;;;18.00;66.40;;;;;;5053021;28;20178;-73
2021/10/15 05:31:31;;;;;;;2.40;2.20;;;17.90;66.30;;;;;;5052359;28;20171;-74
2021/10/15 05:33:57;;;;;;;3.05;2.17;;;17.90;66.30;;;;;;5052807;28;20653;-71
2021/10/15 05:36:22;;;;;;;2.40;2.20;;;17.90;66.30;;;;;;5053028;28;20187;-72
2021/10/15 05:38:48;;;;;;;2.00;1.83;;;17.90;66.30;;;;;;5051853;28;20244;-69
2021/10/15 05:41:13;;;;;;;3.13;2.28;;;17.90;66.30;;;;;;5053018;28;20167;-70
2021/10/15 05:43:39;;;;;;;2.33;2.13;;;17.90;66.30;;;;;;5052933;28;20182;-70
2021/10/15 05:46:04;;;;;;;2.40;2.20;;;17.90;66.30;;;;;;5051953;28;20175;-69
2021/10/15 05:48:30;;;;;;;2.20;2.00;;;17.90;66.30;;;;;;5052931;28;20179;-72
2021/10/15 05:50:55;;;;;;;3.20;2.15;;;17.90;66.30;;;;;;5052599;28;20171;-70
2021/10/15 05:53:23;;;;;;;2.88;2.20;;;17.90;66.20;;;;;;5051983;28;20207;-72
2021/10/15 05:56:05;;;;;;;2.35;1.92;;;17.90;66.30;;;;;;5052605;28;20175;-74
2021/10/15 05:58:53;;;;;;;2.28;2.13;;;17.90;66.30;;;;;;5052305;28;20288;-73
2021/10/15 06:01:24;;;;;;;2.08;1.88;;;17.90;66.30;;;;;;5051917;28;20186;-73
2021/10/15 06:04:32;;;;;;;1.92;1.77;;;17.90;66.30;;;;;;5052335;28;20642;-72
2021/10/15 06:08:19;;;;;;;2.75;2.47;;;17.90;66.30;;;;;;5051632;28;20175;-71
2021/10/15 06:15:09;;;;;;;2.78;2.30;;;17.90;66.40;;;;;;5051647;28;20182;-72
2021/10/15 06:17:42;;;;;;;2.45;2.15;;;17.90;66.40;;;;;;5052575;28;20172;-73
2021/10/15 06:20:09;;;;;;;2.45;1.90;;;17.90;66.40;;;;;;5052355;28;20183;-71
2021/10/15 06:22:34;;;;;;;2.47;2.28;;;17.90;66.40;;;;;;5051905;28;20246;-71
2021/10/15 06:25:00;;;;;;;3.75;2.35;;;17.90;66.40;;;;;;5051915;28;20268;-74
2021/10/15 06:27:25;;;;;;;2.30;2.20;;;17.90;66.40;;;;;;5051689;28;20589;-74
2021/10/15 06:29:51;;;;;;;2.53;2.08;;;17.80;66.30;;;;;;5052145;28;20198;-74
2021/10/15 06:32:17;;;;;;;2.15;1.95;;;17.90;66.40;;;;;;5052397;28;20198;-72
2021/10/15 06:34:42;;;;;;;2.38;2.17;;;17.80;66.30;;;;;;5051677;28;20199;-70
2021/10/15 06:37:08;;;;;;;2.22;2.03;;;17.90;66.50;;;;;;5051987;28;20256;-71
2021/10/15 06:39:33;;;;;;;2.60;2.40;;;17.90;66.40;;;;;;5052703;28;20214;-69
2021/10/15 06:41:59;;;;;;;2.45;2.08;;;17.90;66.40;;;;;;5051345;28;20203;-72
2021/10/15 06:44:24;;;;;;;2.65;2.00;;;17.80;66.40;;;;;;5052385;28;20175;-70
2021/10/15 06:46:52;;;;;;;2.45;2.20;;;17.90;66.50;;;;;;5051882;28;20179;-69
2021/10/15 06:49:18;;;;;;;2.22;2.00;;;17.80;66.40;;;;;;5051568;28;20530;-71
2021/10/15 06:51:43;;;;;;;2.53;1.90;;;17.80;66.40;;;;;;5052066;28;20179;-70
2021/10/15 06:54:09;;;;;;;2.72;2.42;;;17.80;66.40;;;;;;5052079;28;20202;-71
2021/10/15 06:56:34;;;;;;;2.10;2.00;;;17.80;66.50;;;;;;5051603;28;20172;-72
2021/10/15 06:59:00;;;;;;;2.22;2.03;;;17.80;66.40;;;;;;5052043;28;20175;-72
2021/10/15 07:01:25;;;;;;;2.30;2.00;;;17.80;66.50;;;;;;5052194;28;20210;-74
2021/10/15 07:03:51;;;;;;;2.25;2.05;;;17.80;67.00;;;;;;5050996;28;20167;-73
2021/10/15 07:06:16;;;;;;;2.78;2.00;;;17.80;66.80;;;;;;5052071;28;20642;-74
2021/10/15 07:08:42;;;;;;;2.20;1.95;;;17.80;67.00;;;;;;5052234;28;20229;-67
2021/10/15 07:11:07;;;;;;;2.00;1.90;;;17.80;66.80;;;;;;5053545;28;20190;-75
2021/10/15 07:13:33;;;;;;;2.65;2.03;;;17.80;66.70;;;;;;5055671;28;20183;-72
2021/10/15 07:15:58;;;;;;;3.58;2.08;;;17.80;67.00;;;;;;5055321;28;20653;-74
2021/10/15 07:18:24;;;;;;;2.50;1.90;;;17.80;67.20;;;;;;5055059;28;20179;-73
2021/10/15 07:20:49;;;;;;;3.05;2.00;;;17.80;67.00;;;;;;5055114;28;20642;-75
2021/10/15 07:23:15;;;;;;;1.60;1.50;;;17.80;67.00;;;;;;5055164;28;20321;-73
2021/10/15 07:25:41;;;;;;;2.55;1.98;;;17.80;67.20;;;;;;5054544;28;20772;-72
2021/10/15 07:28:07;;;;;;;3.20;1.90;;;17.80;67.10;;;;;;5055064;28;20182;-72
2021/10/15 07:30:32;;;;;;;2.35;1.70;;;17.80;67.20;;;;;;5054718;28;20262;-72
2021/10/15 07:32:58;;;;;;;3.75;1.70;;;17.80;67.00;;;;;;5054828;28;20172;-72
2021/10/15 07:35:23;;;;;;;1.73;1.50;;;17.80;66.80;;;;;;5055244;28;20167;-74
2021/10/15 07:37:49;;;;;;;2.30;1.77;;;17.80;66.80;;;;;;5054007;28;20178;-77
2021/10/15 07:40:14;;;;;;;2.63;1.52;;;17.80;66.90;;;;;;5055240;28;20171;-78
2021/10/15 07:42:40;;;;;;;4.97;1.70;;;17.80;66.80;;;;;;5054970;28;20211;-71
2021/10/15 07:45:05;;;;;;;3.42;1.60;;;17.90;67.30;;;;;;5054028;28;20170;-73
2021/10/15 07:47:31;;;;;;;5.97;1.80;;;17.90;67.10;;;;;;5055022;28;20638;-73
2021/10/15 07:49:56;;;;;;;2.67;1.67;;;17.90;67.20;;;;;;5054824;28;20232;-70
2021/10/15 07:52:22;;;;;;;2.97;1.23;;;17.90;67.30;;;;;;5054008;28;20182;-75
2021/10/15 07:54:48;;;;;;;4.80;1.92;;;18.00;67.30;;;;;;5054430;28;20171;-76
2021/10/15 07:57:14;;;;;;;1.70;1.60;;;18.00;67.40;;;;;;5054922;28;20179;-76
2021/10/15 07:59:40;;;;;;;2.47;1.45;;;18.00;67.50;;;;;;5054058;28;20171;-75
2021/10/15 08:02:05;;;;;;;2.28;1.50;;;18.20;67.70;;;;;;5054342;28;20268;-74
2021/10/15 08:04:31;;;;;;;3.13;1.30;;;18.30;67.50;;;;;;5054492;28;20229;-75
2021/10/15 08:06:56;;;;;;;2.72;2.17;;;18.40;67.40;;;;;;5053411;28;20704;-74
2021/10/15 08:09:22;;;;;;;1.65;1.40;;;18.60;66.90;;;;;;5054426;28;20175;-72
2021/10/15 08:11:48;;;;;;;2.60;1.48;;;18.80;66.60;;;;;;5054379;28;20634;-74
2021/10/15 08:14:13;;;;;;;1.95;1.33;;;19.00;66.00;;;;;;5053968;28;20183;-73
2021/10/15 08:16:39;;;;;;;2.38;1.20;;;19.20;65.60;;;;;;5054592;28;20175;-73
2021/10/15 08:19:04;;;;;;;1.73;1.15;;;19.30;65.20;;;;;;5053982;28;20171;-73
2021/10/15 08:21:30;;;;;;;4.68;1.30;;;19.50;64.70;;;;;;5052878;28;20608;-73
2021/10/15 08:23:55;;;;;;;1.67;1.23;;;19.70;64.50;;;;;;5054034;28;20167;-74
2021/10/15 08:26:20;;;;;;;4.78;1.40;;;19.80;64.20;;;;;;5054168;28;20248;-72
2021/10/15 08:28:47;;;;;;;2.72;1.35;;;19.90;63.80;;;;;;5053476;28;20175;-73
2021/10/15 08:31:13;;;;;;;4.60;1.42;;;19.90;63.60;;;;;;5053984;28;20203;-73
2021/10/15 08:33:39;;;;;;;1.85;1.25;;;20.00;63.70;;;;;;5054042;28;20659;-73
2021/10/15 08:36:04;;;;;;;5.00;1.63;;;19.90;63.70;;;;;;5053030;28;20265;-75
2021/10/15 08:38:30;;;;;;;4.50;1.17;;;20.00;63.70;;;;;;5054232;28;20264;-75
2021/10/15 08:40:55;;;;;;;1.70;1.23;;;20.00;63.80;;;;;;5053031;28;20187;-69
2021/10/15 08:43:35;;;;;;;2.83;1.40;;;20.10;63.80;;;;;;5053930;28;20242;-68
2021/10/15 08:46:02;;;;;;;3.63;1.45;;;20.00;63.70;;;;;;5053486;28;20739;-67
2021/10/15 08:48:27;;;;;;;3.92;1.83;;;19.90;63.80;;;;;;5053040;28;20187;-67
2021/10/15 08:50:53;;;;;;;3.78;1.52;;;19.90;64.00;;;;;;5060789;28;20224;-67
2021/10/15 08:53:18;;;;;;;3.35;1.10;;;19.80;64.20;;;;;;5055474;28;20187;-67
2021/10/15 08:55:44;;;;;;;1.98;1.10;;;19.70;64.20;;;;;;5072910;28;20195;-66
2021/10/15 08:58:09;;;;;;;3.88;1.35;;;19.60;64.50;;;;;;5065996;28;20654;-67
2021/10/15 09:00:36;;;;;;;3.20;1.60;;;19.60;64.70;;;;;;5053557;28;20178;-67
2021/10/15 09:03:21;;;;;;;2.00;1.27;;;19.60;64.90;;;;;;5052352;28;20298;-67
2021/10/15 09:06:00;;;;;;;2.05;1.40;;;19.50;64.90;;;;;;5053514;28;20206;-67
2021/10/15 09:08:42;;;;;;;2.28;1.17;;;19.50;65.00;;;;;;5033381;28;20662;-66
2021/10/15 09:11:30;;;;;;;3.20;1.13;;;19.40;65.20;;;;;;5032549;28;20191;-66
2021/10/15 09:14:08;;;;;;;3.83;1.20;;;19.30;65.40;;;;;;5033287;28;20195;-66
2021/10/15 09:16:56;;;;;;;3.53;1.20;;;19.30;65.60;;;;;;5032714;28;20171;-67
2021/10/15 09:19:29;;;;;;;3.38;1.50;;;19.30;65.70;;;;;;5033172;28;20179;-67
2021/10/15 09:22:17;;;;;;;2.60;1.25;;;19.20;65.70;;;;;;5032794;28;20686;-67
2021/10/15 09:25:03;;;;;;;2.47;1.00;;;19.20;65.90;;;;;;5062664;28;20179;-67
2021/10/15 09:27:34;;;;;;;4.38;1.42;;;19.20;65.90;;;;;;5073014;28;20535;-66
2021/10/15 09:30:09;;;;;;;3.25;1.38;;;19.20;65.90;;;;;;5072627;28;20175;-66
2021/10/15 09:32:39;;;;;;;1.98;1.05;;;19.30;65.90;;;;;;5073043;28;20178;-65
2021/10/15 09:35:06;;;;;;;1.20;1.10;;;19.30;65.80;;;;;;5071837;28;20641;-66
2021/10/15 09:37:33;;;;;;;1.15;1.05;;;19.30;65.70;;;;;;5072394;28;20186;-66
2021/10/15 09:40:04;;;;;;;2.28;1.20;;;19.30;65.70;;;;;;5057307;28;20191;-75
2021/10/15 09:42:30;;;;;;;3.17;1.00;;;19.30;65.80;;;;;;5052734;28;20229;-72
2021/10/15 09:45:01;;;;;;;2.45;1.05;;;19.30;65.70;;;;;;5052067;28;20285;-72
2021/10/15 09:47:28;;;;;;;5.35;1.35;;;19.40;65.60;;;;;;5053016;28;20281;-67
2021/10/15 09:50:07;;;;;;;1.52;1.10;;;19.40;65.50;;;;;;5052585;28;20195;-72
2021/10/15 09:52:35;;;;;;;2.35;1.08;;;19.50;65.40;;;;;;5058641;28;20183;-73
2021/10/15 09:55:31;;;;;;;5.38;1.30;;;19.50;65.60;;;;;;5052296;28;20179;-75
2021/10/15 09:58:09;;;;;;;4.43;1.42;;;19.60;65.80;;;;;;5050246;28;20292;-74
2021/10/15 10:00:34;;;;;;;3.70;1.13;;;19.60;65.80;;;;;;5051975;28;20233;-75
2021/10/15 10:03:00;;;;;;;2.75;1.15;;;19.60;65.70;;;;;;5052135;28;20214;-73
2021/10/15 10:05:26;;;;;;;3.85;1.20;;;19.70;65.60;;;;;;5051805;28;20181;-73
2021/10/15 10:07:52;;;;;;;4.18;1.50;;;19.80;65.60;;;;;;5052483;28;20261;-72
2021/10/15 10:10:23;;;;;;;4.05;1.30;;;19.80;65.50;;;;;;5052586;28;20182;-71
2021/10/15 10:12:49;;;;;;;4.60;1.33;;;19.80;65.60;;;;;;5051621;28;20183;-73
2021/10/15 10:15:17;;;;;;;4.47;1.20;;;19.80;65.60;;;;;;5051826;28;20186;-73
2021/10/15 10:17:56;;;;;;;2.83;1.48;;;19.80;65.90;;;;;;5051025;28;20179;-72
2021/10/15 10:20:29;;;;;;;2.30;1.10;;;19.70;66.00;;;;;;5042838;28;20163;-72
2021/10/15 10:23:05;;;;;;;2.80;1.30;;;19.60;66.30;;;;;;5047909;28;20681;-72
2021/10/15 10:25:31;;;;;;;5.50;1.70;;;19.70;66.30;;;;;;5049691;28;20214;-73
2021/10/15 10:27:57;;;;;;;3.40;1.27;;;19.70;66.20;;;;;;5048800;28;20190;-71
2021/10/15 10:30:36;;;;;;;2.85;1.48;;;19.60;66.20;;;;;;5049620;28;20642;-72
2021/10/15 10:33:02;;;;;;;4.72;1.20;;;19.70;66.20;;;;;;5049060;28;20613;-72
2021/10/15 10:35:28;;;;;;;3.03;1.15;;;19.60;66.20;;;;;;5050365;28;20641;-73
2021/10/15 10:38:33;;;;;;;2.40;0.90;;;19.60;66.30;;;;;;5050768;28;20175;-67
2021/10/15 10:41:01;;;;;;;4.20;1.20;;;19.60;66.40;;;;;;5007939;28;20746;-67
2021/10/15 10:43:30;;;;;;;1.73;1.00;;;19.60;66.30;;;;;;5008963;28;20213;-68
2021/10/15 10:46:08;;;;;;;2.08;1.00;;;19.50;66.50;;;;;;5029824;28;20171;-67
2021/10/15 10:48:33;;;;;;;4.13;0.98;;;19.50;66.60;;;;;;5054923;28;20249;-75
2021/10/15 10:51:11;;;;;;;2.25;0.90;;;19.60;66.40;;;;;;5054609;28;20210;-73
2021/10/15 10:53:57;;;;;;;4.32;1.52;;;19.60;66.30;;;;;;5053779;28;20187;-76
2021/10/15 10:56:42;;;;;;;1.27;0.80;;;19.70;66.30;;;;;;5052482;28;20163;-75
2021/10/15 10:59:30;;;;;;;2.20;1.05;;;19.80;66.20;;;;;;5051895;28;20551;-75
2021/10/15 11:02:12;;;;;;;1.42;1.08;;;19.80;66.10;;;;;;5052287;28;20250;-74
2021/10/15 11:04:41;;;;;;;4.22;0.90;;;19.80;66.00;;;;;;5053456;28;20630;-73
2021/10/15 11:07:08;;;;;;;3.38;1.15;;;19.80;65.90;;;;;;5051808;28;20777;-76
2021/10/15 11:09:53;;;;;;;4.00;1.20;;;19.70;66.00;;;;;;5054906;28;20179;-73
2021/10/15 11:12:28;;;;;;;2.20;0.98;;;19.80;66.30;;;;;;5055379;28;20771;-75
2021/10/15 11:14:57;;;;;;;2.00;1.00;;;19.80;66.10;;;;;;5055411;28;20171;-76
2021/10/15 11:17:32;;;;;;;3.60;1.20;;;19.90;66.10;;;;;;5054917;28;20171;-77
2021/10/15 11:20:20;;;;;;;3.33;0.90;;;19.90;66.00;;;;;;5055452;28;20206;-76
2021/10/15 11:22:59;;;;;;;4.20;0.95;;;19.90;66.00;;;;;;5054383;28;20221;-76
2021/10/15 11:25:33;;;;;;;3.70;1.05;;;19.90;66.00;;;;;;5055406;28;20226;-76
2021/10/15 11:28:00;;;;;;;5.65;1.02;;;20.00;65.90;;;;;;5055278;28;20221;-77
2021/10/15 11:30:28;;;;;;;3.58;1.00;;;20.10;66.00;;;;;;5054605;28;20254;-77
2021/10/15 11:32:54;;;;;;;2.00;1.20;;;20.10;65.80;;;;;;5054922;28;20171;-76
2021/10/15 11:35:22;;;;;;;2.00;1.05;;;20.10;65.70;;;;;;5055057;28;20194;-67
2021/10/15 11:37:54;;;;;;;2.72;1.00;;;20.10;65.70;;;;;;5054241;28;20186;-67
2021/10/15 11:40:38;;;;;;;1.80;0.82;;;20.20;65.50;;;;;;5055174;28;20187;-70
2021/10/15 11:43:20;;;;;;;2.00;1.08;;;20.20;65.20;;;;;;5054581;28;20306;-75
2021/10/15 11:45:47;;;;;;;2.58;1.17;;;20.20;65.20;;;;;;5055989;28;20193;-74
2021/10/15 11:48:17;;;;;;;2.95;0.95;;;20.10;65.20;;;;;;5061044;28;20187;-75
2021/10/15 11:50:47;;;;;;;1.52;0.85;;;20.10;65.40;;;;;;5060130;28;20179;-73
2021/10/15 11:53:15;;;;;;;2.25;0.90;;;20.10;65.40;;;;;;5056637;28;20656;-70
2021/10/15 11:55:41;;;;;;;4.30;0.85;;;20.10;65.40;;;;;;5074797;28;20178;-73
2021/10/15 11:58:38;;;;;;;2.25;1.00;;;20.10;65.30;;;;;;5072954;28;20940;-72
2021/10/15 12:01:17;;;;;;;2.40;1.13;;;20.10;65.20;;;;;;5074626;28;20182;-73
2021/10/15 12:03:44;;;;;;;1.13;0.80;;;20.10;65.20;;;;;;5056328;28;20195;-74
2021/10/15 12:06:10;;;;;;;0.90;0.80;;;20.10;65.10;;;;;;5053681;28;20179;-74
2021/10/15 12:08:37;;;;;;;2.60;0.90;;;20.10;65.10;;;;;;5054808;28;20187;-75
2021/10/15 12:11:02;;;;;;;2.78;1.10;;;20.10;65.10;;;;;;5054260;28;20583;-72
2021/10/15 12:13:28;;;;;;;4.20;1.08;;;20.10;65.20;;;;;;5036194;28;20269;-72
2021/10/15 12:15:53;;;;;;;1.13;0.90;;;20.10;65.30;;;;;;5054112;28;20217;-73
2021/10/15 12:18:19;;;;;;;3.10;0.60;;;20.00;65.40;;;;;;5054261;28;20525;-73
2021/10/15 12:20:45;;;;;;;3.33;1.00;;;20.00;65.30;;;;;;5071510;28;20171;-75
2021/10/15 12:23:10;;;;;;;2.35;0.95;;;19.90;65.30;;;;;;5072984;28;20202;-72
2021/10/15 12:25:36;;;;;;;2.53;1.02;;;19.90;65.50;;;;;;5074195;28;20225;-69
2021/10/15 12:28:12;;;;;;;1.60;0.80;;;19.80;65.60;;;;;;5078006;28;20175;-64
2021/10/15 12:30:38;;;;;;;1.35;0.90;;;19.80;65.70;;;;;;5075476;28;20223;-71
2021/10/15 12:33:07;;;;;;;2.22;0.85;;;19.70;65.60;;;;;;5073029;28;20572;-74
2021/10/15 12:35:33;;;;;;;2.80;1.20;;;19.70;65.80;;;;;;5073997;28;20348;-76
2021/10/15 12:37:59;;;;;;;2.60;0.90;;;19.70;66.00;;;;;;5073974;28;20273;-75
2021/10/15 12:40:33;;;;;;;2.90;1.20;;;19.70;66.00;;;;;;5073504;28;20634;-75
2021/10/15 12:43:09;;;;;;;2.65;0.88;;;19.70;65.90;;;;;;5073741;28;20210;-76
2021/10/15 12:45:49;;;;;;;3.55;0.90;;;19.80;65.80;;;;;;5073742;28;20178;-72
2021/10/15 12:48:16;;;;;;;2.38;1.10;;;19.90;65.90;;;;;;5073255;28;20178;-73
2021/10/15 12:50:55;;;;;;;2.65;0.85;;;20.00;65.80;;;;;;5073805;28;20181;-72
2021/10/15 12:53:20;;;;;;;4.40;1.02;;;19.90;65.70;;;;;;5068506;28;20167;-72
2021/10/15 12:55:53;;;;;;;2.38;1.10;;;19.90;65.70;;;;;;5052952;28;20178;-72
2021/10/15 12:58:18;;;;;;;3.50;1.05;;;20.00;65.60;;;;;;5053761;28;20534;-73